Time;durP1;ratioP1;P1;durP2;ratioP2;P2;SDS_P1;SDS_P2;PMS_P1;PMS_P2;Temp;Humidity;BMP_temperature;BMP_pressure;BME280_temperature;BME280_humidity;BME280_pressure;Samples;Min_cycle;Max_cycle;Signal;HPM_P1;HPM_P2
2023/01/04 00:02:46;;;;;;;5.57;1.77;;;12.40;99.90;;;;;;10448166;28;20535;-27
2023/01/04 00:07:49;;;;;;;2.25;1.50;;;13.20;99.90;;;;;;10454999;28;20045;-25
2023/01/04 00:12:51;;;;;;;3.75;1.63;;;13.10;99.90;;;;;;10453229;28;20092;-26
2023/01/04 00:17:53;;;;;;;4.83;1.33;;;12.80;99.90;;;;;;10454365;28;20059;-28
2023/01/04 00:22:57;;;;;;;4.45;1.52;;;13.10;99.90;;;;;;10447203;28;20480;-26
2023/01/04 00:27:59;;;;;;;5.55;1.75;;;11.60;99.90;;;;;;10450237;28;20484;-28
2023/01/04 00:33:01;;;;;;;1.13;0.90;;;11.40;99.90;;;;;;10451952;28;20049;-26
2023/01/04 00:38:04;;;;;;;2.67;1.33;;;12.40;99.90;;;;;;10455183;28;20064;-26
2023/01/04 00:43:06;;;;;;;10.85;1.73;;;12.50;99.90;;;;;;10453688;28;20065;-25
2023/01/04 00:48:08;;;;;;;5.32;2.58;;;11.40;99.90;;;;;;10449278;28;20053;-26
2023/01/04 00:53:11;;;;;;;4.82;2.30;;;10.90;99.90;;;;;;10452902;28;20132;-25
2023/01/04 00:58:13;;;;;;;4.45;1.92;;;10.80;99.90;;;;;;10462447;28;20057;-26
2023/01/04 01:03:15;;;;;;;4.93;1.90;;;11.10;99.90;;;;;;10450931;28;20044;-25
2023/01/04 01:08:24;;;;;;;4.03;1.75;;;11.20;99.90;;;;;;10438877;28;20890;-26
2023/01/04 01:13:26;;;;;;;4.18;2.05;;;11.20;99.90;;;;;;10451472;28;20109;-25
2023/01/04 01:18:29;;;;;;;6.07;2.05;;;10.90;99.90;;;;;;10448859;28;20099;-26
2023/01/04 01:23:32;;;;;;;10.65;2.10;;;10.70;99.90;;;;;;10445002;28;20091;-26
2023/01/04 01:28:36;;;;;;;7.22;2.30;;;11.00;99.90;;;;;;10449208;28;20056;-28
2023/01/04 01:33:38;;;;;;;6.05;2.13;;;10.50;99.90;;;;;;10451716;28;20076;-26
2023/01/04 01:38:42;;;;;;;8.93;2.30;;;10.80;99.90;;;;;;10455608;28;20494;-26
2023/01/04 01:43:53;;;;;;;1.52;1.40;;;10.60;99.90;;;;;;10446406;28;21038;-25
2023/01/04 01:49:00;;;;;;;11.77;2.53;;;10.90;99.90;;;;;;10445051;28;20410;-26
2023/01/04 01:54:08;;;;;;;3.28;1.58;;;10.70;99.90;;;;;;10449745;28;20131;-26
2023/01/04 01:59:12;;;;;;;4.85;2.15;;;11.20;99.90;;;;;;10450559;28;20061;-26
2023/01/04 02:04:16;;;;;;;4.22;2.33;;;11.00;99.90;;;;;;10440376;28;20076;-27
2023/01/04 02:09:21;;;;;;;7.03;2.40;;;10.80;99.90;;;;;;10442014;28;20084;-25
2023/01/04 02:14:28;;;;;;;4.82;1.98;;;11.20;99.90;;;;;;10444211;28;20192;-26
2023/01/04 02:20:00;;;;;;;3.25;1.42;;;11.30;99.90;;;;;;10450142;28;20057;-25
2023/01/04 02:25:43;;;;;;;3.95;1.60;;;10.90;99.90;;;;;;10443218;28;20055;-28
2023/01/04 02:31:17;;;;;;;6.70;1.98;;;11.20;99.90;;;;;;10445366;28;20076;-26
2023/01/04 02:36:26;;;;;;;5.70;1.83;;;11.10;99.90;;;;;;10448369;28;20500;-26
2023/01/04 02:41:32;;;;;;;1.70;1.58;;;11.10;99.90;;;;;;10434689;28;20049;-26
2023/01/04 02:46:41;;;;;;;2.28;1.90;;;11.00;99.90;;;;;;10444637;28;20063;-26
2023/01/04 02:51:43;;;;;;;4.43;1.63;;;10.80;99.90;;;;;;10448100;28;20087;-26
2023/01/04 02:57:00;;;;;;;4.18;1.40;;;11.20;99.90;;;;;;10448666;28;20085;-25
2023/01/04 03:07:41;;;;;;;4.32;1.77;;;11.20;99.90;;;;;;10436761;28;20477;-24
2023/01/04 03:12:47;;;;;;;2.25;1.48;;;11.20;99.90;;;;;;10458791;28;20053;-25
2023/01/04 03:17:54;;;;;;;3.40;2.33;;;11.40;99.90;;;;;;10448327;28;20131;-26
2023/01/04 03:50:07;;;;;;;8.75;2.60;;;11.40;99.90;;;;;;10445005;28;20037;-26
2023/01/04 03:55:10;;;;;;;5.95;2.50;;;11.40;99.90;;;;;;10465867;28;20087;-26
2023/01/04 04:00:14;;;;;;;;;;;11.40;99.90;;;;;;10454373;28;20824;-27
2023/01/04 04:10:39;;;;;;;2.90;1.50;;;11.40;99.90;;;;;;10448207;28;20463;-30
2023/01/04 04:15:41;;;;;;;3.72;1.42;;;12.00;99.90;;;;;;10454291;28;20092;-26
2023/01/04 04:20:44;;;;;;;5.95;1.52;;;11.70;99.90;;;;;;10453261;28;20084;-26
2023/01/04 04:25:46;;;;;;;4.22;1.45;;;11.60;99.90;;;;;;10445506;28;20449;-26
2023/01/04 04:30:49;;;;;;;11.32;1.88;;;11.80;99.90;;;;;;10454410;28;20053;-26
2023/01/04 04:35:53;;;;;;;8.43;1.92;;;11.70;99.90;;;;;;10451050;28;20458;-27
2023/01/04 04:46:29;;;;;;;7.13;1.00;;;11.80;99.90;;;;;;10323668;28;20094;-25
2023/01/04 04:51:33;;;;;;;5.50;1.27;;;11.90;99.90;;;;;;10417176;28;20132;-29
2023/01/04 04:56:35;;;;;;;6.32;1.23;;;11.70;99.90;;;;;;10452856;28;20080;-25
2023/01/04 05:01:37;;;;;;;3.35;1.52;;;12.10;99.90;;;;;;10447226;28;20106;-25
2023/01/04 05:06:40;;;;;;;8.45;1.65;;;11.70;99.90;;;;;;10445018;28;20045;-25
2023/01/04 05:17:02;;;;;;;6.80;2.00;;;11.80;99.90;;;;;;10447942;28;20049;-28
2023/01/04 05:22:05;;;;;;;3.85;2.38;;;11.60;99.90;;;;;;10448208;28;20136;-29
2023/01/04 05:27:07;;;;;;;4.72;1.88;;;11.90;99.90;;;;;;10448307;28;20473;-25
2023/01/04 05:32:09;;;;;;;7.55;2.10;;;11.70;99.90;;;;;;10452457;28;20360;-25
2023/01/04 05:37:12;;;;;;;6.78;2.05;;;11.90;99.90;;;;;;10452689;28;20068;-26
2023/01/04 05:42:26;;;;;;;4.35;1.90;;;11.80;99.90;;;;;;10448150;28;20559;-26
2023/01/04 05:47:29;;;;;;;8.07;3.45;;;11.90;99.90;;;;;;10440710;28;20049;-25
2023/01/04 05:52:32;;;;;;;8.52;2.05;;;12.00;99.90;;;;;;10439609;28;20103;-27
2023/01/04 05:57:34;;;;;;;7.88;1.92;;;11.70;99.90;;;;;;10438358;28;20084;-29
2023/01/04 06:02:36;;;;;;;8.90;2.42;;;12.00;99.90;;;;;;10444065;28;20076;-27
2023/01/04 06:07:40;;;;;;;7.80;1.60;;;11.90;99.90;;;;;;10434125;28;20606;-26
2023/01/04 06:12:42;;;;;;;11.50;2.15;;;11.90;99.90;;;;;;10445373;28;20056;-24
2023/01/04 06:17:44;;;;;;;8.27;1.85;;;11.90;99.90;;;;;;10451016;28;20429;-25
2023/01/04 06:22:47;;;;;;;5.05;1.85;;;12.00;99.90;;;;;;10445516;28;20053;-25
2023/01/04 06:27:49;;;;;;;10.60;1.88;;;12.10;99.90;;;;;;10447301;28;20072;-26
2023/01/04 06:32:51;;;;;;;12.57;2.17;;;11.80;99.90;;;;;;10444128;28;20052;-27
2023/01/04 06:37:54;;;;;;;20.67;2.95;;;12.00;99.90;;;;;;10444894;28;20103;-27
2023/01/04 06:42:56;;;;;;;22.58;2.85;;;12.00;99.90;;;;;;10438870;28;20080;-28
2023/01/04 06:47:57;;;;;;;20.58;2.90;;;12.10;99.90;;;;;;10444229;28;20076;-28
2023/01/04 06:53:01;;;;;;;10.45;2.13;;;12.00;99.90;;;;;;10445579;28;20048;-26
2023/01/04 06:58:03;;;;;;;18.50;2.83;;;11.90;99.90;;;;;;10454257;28;20502;-25
2023/01/04 07:15:28;;;;;;;26.05;5.00;;;11.80;99.90;;;;;;10481566;27;1627465;-26
2023/01/04 07:20:30;;;;;;;17.70;3.88;;;11.80;99.90;;;;;;10509951;28;20040;-25
2023/01/04 07:25:32;;;;;;;24.13;4.07;;;11.60;99.90;;;;;;10497987;28;20536;-26
2023/01/04 07:30:35;;;;;;;20.23;3.72;;;11.50;99.90;;;;;;10514712;28;20048;-25
2023/01/04 07:35:37;;;;;;;27.75;4.55;;;11.60;99.90;;;;;;10517117;28;20054;-27
2023/01/04 07:40:39;;;;;;;33.22;4.63;;;11.40;99.90;;;;;;10505948;28;20474;-25
2023/01/04 07:45:45;;;;;;;21.60;3.83;;;11.30;99.90;;;;;;10511955;28;20056;-25
2023/01/04 07:50:46;;;;;;;31.70;4.85;;;11.80;99.90;;;;;;10513329;28;20060;-25
2023/01/04 07:55:48;;;;;;;34.53;5.10;;;11.40;99.90;;;;;;10511928;28;20141;-24
2023/01/04 08:00:51;;;;;;;34.75;5.53;;;11.70;99.90;;;;;;10508490;28;20079;-26
2023/01/04 08:05:53;;;;;;;24.85;5.03;;;11.40;99.90;;;;;;10518825;28;20078;-25
2023/01/04 08:10:55;;;;;;;31.83;4.93;;;11.30;99.90;;;;;;10499653;28;20052;-25
2023/01/04 08:15:58;;;;;;;45.28;6.10;;;11.30;99.90;;;;;;10509051;28;20048;-27
2023/01/04 08:21:04;;;;;;;46.83;6.68;;;11.60;99.90;;;;;;10504033;28;20073;-25
2023/01/04 08:26:07;;;;;;;55.60;6.93;;;11.60;99.90;;;;;;10495397;28;20130;-25
2023/01/04 08:31:13;;;;;;;50.70;7.00;;;11.40;99.90;;;;;;10465264;28;20106;-26
2023/01/04 08:36:18;;;;;;;58.72;7.55;;;11.50;99.90;;;;;;10484591;28;20105;-25
2023/01/04 08:41:21;;;;;;;41.72;5.18;;;11.30;99.90;;;;;;10487546;28;20041;-27
2023/01/04 08:46:24;;;;;;;56.80;10.50;;;11.50;99.90;;;;;;10486837;28;20048;-26
2023/01/04 08:51:26;;;;;;;67.60;7.57;;;11.20;99.90;;;;;;10462898;28;20145;-24
2023/01/04 08:56:28;;;;;;;42.88;5.70;;;11.30;99.90;;;;;;10483487;28;20084;-25
2023/01/04 09:01:31;;;;;;;42.85;5.18;;;11.40;99.90;;;;;;10476940;28;20440;-26
2023/01/04 09:06:34;;;;;;;46.20;6.72;;;11.70;99.90;;;;;;10483500;28;20041;-25
2023/01/04 09:11:38;;;;;;;46.22;6.45;;;11.40;99.90;;;;;;10486645;28;20063;-26
2023/01/04 09:16:41;;;;;;;48.53;6.35;;;11.50;99.90;;;;;;10476194;28;20549;-26
2023/01/04 09:21:44;;;;;;;44.22;7.47;;;11.20;99.90;;;;;;10474140;28;20095;-24
2023/01/04 09:26:46;;;;;;;54.85;7.65;;;11.50;99.90;;;;;;10472285;28;20053;-25
2023/01/04 09:31:50;;;;;;;42.22;5.53;;;11.30;99.90;;;;;;10473429;28;20067;-25
2023/01/04 09:36:51;;;;;;;33.00;6.05;;;11.50;99.90;;;;;;10475625;28;20044;-26
2023/01/04 09:41:57;;;;;;;44.13;6.30;;;11.40;99.90;;;;;;10486102;28;20053;-25
2023/01/04 09:47:07;;;;;;;30.70;4.82;;;11.30;99.90;;;;;;10469546;28;20044;-26
2023/01/04 09:52:16;;;;;;;50.83;5.03;;;11.40;99.90;;;;;;10471940;28;20404;-28
2023/01/04 09:57:23;;;;;;;24.35;4.38;;;11.50;99.90;;;;;;10483100;28;20059;-26
2023/01/04 10:02:36;;;;;;;35.67;4.80;;;11.50;99.90;;;;;;10473059;28;20044;-25
2023/01/04 10:07:38;;;;;;;40.17;6.85;;;11.70;99.90;;;;;;10476278;28;20163;-26
2023/01/04 10:12:52;;;;;;;33.70;4.82;;;11.40;99.90;;;;;;10481672;28;20059;-26
2023/01/04 10:18:09;;;;;;;25.00;4.38;;;11.70;99.90;;;;;;10479813;28;20456;-26
2023/01/04 10:23:18;;;;;;;31.77;3.85;;;11.80;99.90;;;;;;10466959;28;20573;-25
2023/01/04 10:28:33;;;;;;;35.33;5.32;;;11.60;99.90;;;;;;10472789;28;20102;-25
2023/01/04 10:33:45;;;;;;;34.92;4.57;;;11.40;99.90;;;;;;10479544;28;20522;-27
2023/01/04 10:38:56;;;;;;;18.42;3.75;;;11.80;99.90;;;;;;10478745;28;20106;-29
2023/01/04 10:44:06;;;;;;;26.92;4.18;;;11.50;99.90;;;;;;10483228;28;20539;-26
2023/01/04 10:49:14;;;;;;;48.15;5.03;;;11.50;99.90;;;;;;10478929;28;20076;-25
2023/01/04 10:54:24;;;;;;;27.50;4.57;;;11.70;99.90;;;;;;10468647;28;20135;-26
2023/01/04 10:59:33;;;;;;;30.63;3.88;;;11.50;99.90;;;;;;10475038;28;20511;-25
2023/01/04 11:04:42;;;;;;;30.15;4.13;;;11.50;99.90;;;;;;10462234;28;20064;-25
2023/01/04 11:09:51;;;;;;;31.58;4.43;;;11.80;99.90;;;;;;10468666;28;20443;-27
2023/01/04 11:14:53;;;;;;;31.58;4.35;;;11.60;99.90;;;;;;10473217;28;20144;-26
2023/01/04 11:19:57;;;;;;;22.37;4.23;;;11.90;99.90;;;;;;10476622;28;20063;-25
2023/01/04 11:25:03;;;;;;;18.52;2.75;;;11.80;99.90;;;;;;10479324;28;20536;-26
2023/01/04 11:30:14;;;;;;;43.53;5.35;;;12.00;99.90;;;;;;10474466;28;20095;-29
2023/01/04 11:35:38;;;;;;;38.03;3.85;;;11.50;99.90;;;;;;10455159;28;20053;-24
2023/01/04 11:40:41;;;;;;;37.55;5.57;;;11.80;99.90;;;;;;10483344;28;20424;-26
2023/01/04 11:45:53;;;;;;;31.95;5.20;;;12.00;99.90;;;;;;10483438;28;20059;-26
2023/01/04 11:50:57;;;;;;;58.88;6.20;;;11.80;99.90;;;;;;10470733;28;20053;-25
2023/01/04 11:56:17;;;;;;;34.80;5.35;;;11.60;99.90;;;;;;10481326;28;20113;-26
2023/01/04 12:01:22;;;;;;;34.85;5.68;;;12.00;99.90;;;;;;10487886;28;20068;-27
2023/01/04 12:06:33;;;;;;;32.55;4.57;;;11.80;99.90;;;;;;10479446;28;20132;-26
2023/01/04 12:11:39;;;;;;;49.28;5.47;;;11.80;99.90;;;;;;10491630;28;20133;-25
2023/01/04 12:16:47;;;;;;;29.65;3.83;;;11.70;99.90;;;;;;10482264;28;20088;-27
2023/01/04 12:21:54;;;;;;;34.03;5.75;;;11.70;99.90;;;;;;10479565;28;20550;-25
2023/01/04 12:26:57;;;;;;;32.08;5.45;;;11.80;99.90;;;;;;10487057;28;20079;-25
2023/01/04 12:32:28;;;;;;;31.83;7.45;;;11.50;99.90;;;;;;10487623;28;20045;-25
2023/01/04 12:37:48;;;;;;;37.67;4.05;;;11.80;99.90;;;;;;10478696;28;20087;-25
2023/01/04 12:43:18;;;;;;;28.17;4.35;;;12.10;99.90;;;;;;10485350;28;20485;-26
2023/01/04 12:53:58;;;;;;;36.38;4.38;;;12.10;99.90;;;;;;10474261;28;20061;-25
2023/01/04 12:59:13;;;;;;;19.95;3.10;;;12.10;99.90;;;;;;10472632;28;20068;-25
2023/01/04 13:04:38;;;;;;;38.95;6.25;;;12.00;99.90;;;;;;10482955;28;20135;-27
2023/01/04 13:09:49;;;;;;;29.98;4.72;;;11.70;99.90;;;;;;10479137;28;20048;-26
2023/01/04 13:14:54;;;;;;;37.47;4.68;;;12.20;99.90;;;;;;10481111;28;20141;-25
2023/01/04 13:19:56;;;;;;;31.90;3.92;;;11.80;99.90;;;;;;10481928;28;20076;-25
2023/01/04 13:25:03;;;;;;;37.83;5.03;;;11.80;99.90;;;;;;10478901;28;20102;-26
2023/01/04 13:30:06;;;;;;;17.88;4.10;;;11.90;99.90;;;;;;10460680;28;20048;-25
2023/01/04 13:35:13;;;;;;;38.55;4.82;;;12.30;99.90;;;;;;10471201;28;20114;-28
2023/01/04 13:40:27;;;;;;;30.55;4.72;;;11.80;99.90;;;;;;10471869;28;20090;-27
2023/01/04 13:45:51;;;;;;;38.22;5.95;;;11.60;99.90;;;;;;10478401;28;20083;-26
2023/01/04 13:51:01;;;;;;;38.17;5.72;;;11.70;99.90;;;;;;10482643;28;20059;-26
2023/01/04 13:56:05;;;;;;;19.05;4.45;;;11.90;99.90;;;;;;10478245;28;20094;-24
2023/01/04 14:01:17;;;;;;;45.92;4.85;;;12.10;99.90;;;;;;10475394;28;20115;-26
2023/01/04 14:06:26;;;;;;;37.45;5.22;;;12.00;99.90;;;;;;10461140;28;20094;-26
2023/01/04 14:17:07;;;;;;;32.08;4.82;;;11.70;99.90;;;;;;10477333;28;20049;-26
2023/01/04 14:22:40;;;;;;;37.17;5.00;;;11.80;99.90;;;;;;10478445;28;20049;-26
2023/01/04 14:27:43;;;;;;;43.58;6.18;;;11.70;99.90;;;;;;10475569;28;20044;-28
2023/01/04 14:32:54;;;;;;;52.15;7.25;;;11.70;99.90;;;;;;10470567;28;20144;-26
2023/01/04 14:38:02;;;;;;;36.40;4.80;;;12.00;99.90;;;;;;10456560;28;20052;-26
2023/01/04 14:43:33;;;;;;;39.58;5.57;;;12.20;99.90;;;;;;10477796;28;20055;-28
2023/01/04 14:48:35;;;;;;;43.85;6.38;;;11.70;99.90;;;;;;10477545;28;20047;-24
2023/01/04 14:53:37;;;;;;;39.95;7.43;;;12.10;99.90;;;;;;10473932;28;20086;-25
2023/01/04 14:58:41;;;;;;;45.40;6.70;;;12.10;99.90;;;;;;10478540;28;20474;-26
2023/01/04 15:03:42;;;;;;;48.28;6.30;;;11.80;99.90;;;;;;10474445;28;20053;-25
2023/01/04 15:08:44;;;;;;;37.88;5.45;;;12.40;99.90;;;;;;10466451;28;20052;-24
2023/01/04 15:13:48;;;;;;;50.80;6.63;;;12.20;99.90;;;;;;10467065;28;20074;-27
2023/01/04 15:18:49;;;;;;;37.95;5.55;;;11.70;99.90;;;;;;10464045;28;20076;-26
2023/01/04 15:23:51;;;;;;;52.33;6.40;;;11.80;99.90;;;;;;10475753;28;20133;-28
2023/01/04 15:28:54;;;;;;;56.05;7.75;;;12.00;99.90;;;;;;10484716;28;20468;-25
2023/01/04 15:33:56;;;;;;;45.92;7.63;;;11.50;99.90;;;;;;10455343;28;20087;-26
2023/01/04 15:38:58;;;;;;;58.15;7.22;;;11.60;99.90;;;;;;10469505;28;20106;-26
2023/01/04 15:44:02;;;;;;;60.78;7.63;;;11.50;99.90;;;;;;10492287;28;20122;-26
2023/01/04 15:49:04;;;;;;;48.85;6.55;;;11.70;99.90;;;;;;10486193;28;20809;-24
2023/01/04 15:54:06;;;;;;;54.33;7.23;;;11.80;99.90;;;;;;10480331;28;20048;-27
2023/01/04 15:59:09;;;;;;;58.28;6.72;;;11.70;99.90;;;;;;10480994;28;20044;-26
2023/01/04 16:04:11;;;;;;;55.95;5.47;;;11.70;99.90;;;;;;10481860;28;20044;-34
2023/01/04 16:09:14;;;;;;;42.85;5.45;;;11.50;99.90;;;;;;10476015;28;20130;-25
2023/01/04 16:14:17;;;;;;;56.55;7.55;;;11.70;99.90;;;;;;10476484;28;20748;-27
2023/01/04 16:19:19;;;;;;;44.05;6.60;;;11.70;99.90;;;;;;10464789;28;20139;-26
2023/01/04 16:24:20;;;;;;;63.45;8.68;;;11.50;99.90;;;;;;10463864;28;20047;-26
2023/01/04 16:29:24;;;;;;;79.43;9.13;;;11.50;99.90;;;;;;10464684;28;20048;-26
2023/01/04 16:34:26;;;;;;;55.38;7.05;;;11.20;99.90;;;;;;10473557;28;20447;-25
2023/01/04 16:39:28;;;;;;;47.90;7.50;;;11.40;99.90;;;;;;10477359;28;20049;-25
2023/01/04 16:44:31;;;;;;;41.55;6.72;;;11.50;99.90;;;;;;10475570;28;20052;-26
2023/01/04 16:49:33;;;;;;;42.20;5.95;;;11.40;99.90;;;;;;10473132;28;20053;-26
2023/01/04 16:54:34;;;;;;;45.63;7.70;;;11.80;99.90;;;;;;10478555;28;20088;-26
2023/01/04 16:59:38;;;;;;;45.13;6.95;;;11.60;99.90;;;;;;10490072;28;20046;-24
2023/01/04 17:04:39;;;;;;;47.80;8.80;;;11.70;99.90;;;;;;10480789;28;20053;-26
2023/01/04 17:09:41;;;;;;;47.58;6.88;;;11.30;99.90;;;;;;10485153;28;20102;-28
2023/01/04 17:14:45;;;;;;;60.35;8.63;;;11.60;99.90;;;;;;10479059;28;20059;-29
2023/01/04 17:19:46;;;;;;;68.57;9.25;;;11.80;99.90;;;;;;10464042;28;20051;-24
2023/01/04 17:24:48;;;;;;;73.57;10.20;;;11.40;99.90;;;;;;10484517;28;20127;-28
2023/01/04 17:29:51;;;;;;;79.50;9.23;;;11.50;99.90;;;;;;10470732;28;20057;-26
2023/01/04 17:34:53;;;;;;;;;;;11.40;99.90;;;;;;10478798;28;20101;-28
2023/01/04 17:39:55;;;;;;;92.35;9.90;;;11.20;99.90;;;;;;10474969;28;19956;-25
2023/01/04 17:44:58;;;;;;;81.10;11.18;;;11.20;99.90;;;;;;10481720;28;20131;-25
2023/01/04 17:50:00;;;;;;;72.28;8.07;;;11.20;99.90;;;;;;10484438;28;20044;-27
2023/01/04 17:55:03;;;;;;;68.73;10.30;;;11.50;99.90;;;;;;10486255;28;20052;-27
2023/01/04 18:00:07;;;;;;;68.78;9.70;;;11.60;99.90;;;;;;10479664;28;20044;-27
2023/01/04 18:05:10;;;;;;;75.32;11.88;;;11.40;99.90;;;;;;10483126;28;20055;-26
2023/01/04 18:10:13;;;;;;;69.38;9.15;;;11.30;99.90;;;;;;10484681;28;20063;-28
2023/01/04 18:15:17;;;;;;;82.85;9.70;;;11.40;99.90;;;;;;10475529;28;20060;-26
2023/01/04 18:20:20;;;;;;;81.38;9.20;;;11.00;99.90;;;;;;10477239;28;20472;-26
2023/01/04 18:25:22;;;;;;;83.13;10.43;;;11.00;99.90;;;;;;10487551;28;20048;-25
2023/01/04 18:30:25;;;;;;;59.72;8.52;;;11.00;99.90;;;;;;10468518;28;20152;-25
2023/01/04 18:35:27;;;;;;;61.33;8.02;;;11.10;99.90;;;;;;10461882;28;20699;-25
2023/01/04 18:40:29;;;;;;;68.28;8.98;;;11.10;99.90;;;;;;10482093;28;20572;-25
2023/01/04 18:45:32;;;;;;;77.65;8.50;;;11.00;99.90;;;;;;10480179;28;20721;-28
2023/01/04 18:50:34;;;;;;;;;;;11.10;99.90;;;;;;10472412;28;20114;-26
2023/01/04 18:55:38;;;;;;;59.78;9.13;;;11.20;99.90;;;;;;10484672;28;19920;-26
2023/01/04 19:00:41;;;;;;;56.78;8.65;;;11.10;99.90;;;;;;10483684;28;20138;-25
2023/01/04 19:05:43;;;;;;;;;;;11.20;99.90;;;;;;10484287;28;20048;-28
2023/01/04 19:10:46;;;;;;;64.22;9.25;;;11.10;99.90;;;;;;10486621;28;19924;-26
2023/01/04 19:15:49;;;;;;;73.75;10.55;;;11.70;99.90;;;;;;10484802;28;20084;-26
2023/01/04 19:20:51;;;;;;;72.13;9.35;;;11.30;99.90;;;;;;10478780;28;20139;-25
2023/01/04 19:25:53;;;;;;;62.58;10.30;;;11.30;99.90;;;;;;10481625;28;20040;-27
2023/01/04 19:30:56;;;;;;;61.27;8.77;;;11.60;99.90;;;;;;10473936;28;20049;-29
2023/01/04 19:35:58;;;;;;;65.25;8.02;;;11.30;99.90;;;;;;10477278;28;20049;-25
2023/01/04 19:41:01;;;;;;;67.07;7.50;;;11.30;99.90;;;;;;10487663;28;20149;-26
2023/01/04 19:46:08;;;;;;;51.25;7.07;;;11.30;99.90;;;;;;10483172;28;20052;-25
2023/01/04 19:51:12;;;;;;;50.17;6.82;;;11.50;99.90;;;;;;10472254;28;20103;-28
2023/01/04 19:56:15;;;;;;;43.75;7.80;;;11.30;99.90;;;;;;10475619;28;20044;-26
2023/01/04 20:01:21;;;;;;;63.67;9.07;;;11.40;99.90;;;;;;10468322;28;20060;-24
2023/01/04 20:06:22;;;;;;;51.33;7.60;;;11.40;99.90;;;;;;10471662;28;20545;-26
2023/01/04 20:11:24;;;;;;;44.08;6.63;;;11.80;99.90;;;;;;10467165;28;20452;-26
2023/01/04 20:16:28;;;;;;;49.08;6.68;;;11.70;99.90;;;;;;10456727;28;20573;-31
2023/01/04 20:21:30;;;;;;;39.38;7.07;;;11.70;99.90;;;;;;10470118;28;20045;-25
2023/01/04 20:26:31;;;;;;;49.80;6.25;;;11.60;99.90;;;;;;10472642;28;20049;-31
2023/01/04 20:31:35;;;;;;;48.88;6.70;;;11.70;99.90;;;;;;10479460;28;20068;-27
2023/01/04 20:36:38;;;;;;;51.10;8.05;;;11.60;99.90;;;;;;10486793;28;20106;-25
2023/01/04 20:43:31;;;;;;;54.92;7.30;;;11.70;99.90;;;;;;10462477;28;20071;-29
2023/01/04 20:47:04;;;;;;;48.65;5.93;;;11.50;99.90;;;;;;10467315;28;20044;-28
2023/01/04 20:52:06;;;;;;;47.67;6.68;;;11.60;99.90;;;;;;10486001;28;20489;-26
2023/01/04 20:57:08;;;;;;;44.87;7.50;;;11.40;99.90;;;;;;10483915;28;20076;-27
2023/01/04 21:02:12;;;;;;;35.60;6.13;;;11.10;99.90;;;;;;10492816;28;20705;-25
2023/01/04 21:07:14;;;;;;;41.55;6.22;;;11.10;99.90;;;;;;10474909;28;20056;-27
2023/01/04 21:12:16;;;;;;;47.47;7.15;;;11.30;99.90;;;;;;10472400;28;20080;-24
2023/01/04 21:17:19;;;;;;;38.50;6.38;;;11.40;99.90;;;;;;10475765;28;20087;-25
2023/01/04 21:22:22;;;;;;;41.65;5.57;;;11.30;99.90;;;;;;10479560;28;20110;-26
2023/01/04 21:27:25;;;;;;;44.65;5.97;;;11.20;99.90;;;;;;10475741;28;20098;-28
2023/01/04 21:32:29;;;;;;;58.67;6.78;;;11.30;99.90;;;;;;10464813;28;20052;-26
2023/01/04 21:37:31;;;;;;;56.97;7.68;;;11.00;99.90;;;;;;10473133;28;20502;-25
2023/01/04 21:42:33;;;;;;;51.45;7.97;;;11.10;99.90;;;;;;10479632;28;20069;-24
2023/01/04 21:47:36;;;;;;;41.00;4.65;;;11.20;99.90;;;;;;10469455;28;20069;-26
2023/01/04 21:52:38;;;;;;;57.55;7.32;;;11.20;99.90;;;;;;10477555;28;20140;-26
2023/01/04 21:57:40;;;;;;;43.10;5.97;;;11.20;99.90;;;;;;10489278;28;20575;-26
2023/01/04 22:02:44;;;;;;;57.60;6.85;;;11.10;99.90;;;;;;10478730;28;20080;-29
2023/01/04 22:07:46;;;;;;;50.70;5.60;;;10.80;99.90;;;;;;10488457;28;20127;-26
2023/01/04 22:12:49;;;;;;;41.80;6.35;;;10.80;99.90;;;;;;10481119;28;20106;-26
2023/01/04 22:17:52;;;;;;;47.95;5.95;;;10.90;99.90;;;;;;10486515;28;20056;-29
2023/01/04 22:22:54;;;;;;;38.97;5.53;;;10.70;99.90;;;;;;10484579;28;20475;-27
2023/01/04 22:27:56;;;;;;;47.55;6.30;;;10.80;99.90;;;;;;10482172;28;20045;-27
2023/01/04 22:32:59;;;;;;;38.60;6.28;;;10.80;99.90;;;;;;10488195;28;20114;-25
2023/01/04 22:38:01;;;;;;;;;;;11.10;99.90;;;;;;10485621;28;20116;-25
2023/01/04 22:43:02;;;;;;;54.72;6.95;;;11.00;99.90;;;;;;10483749;28;19977;-25
2023/01/04 22:48:06;;;;;;;37.22;5.85;;;11.10;99.90;;;;;;10467871;28;20497;-26
2023/01/04 22:53:08;;;;;;;45.92;7.18;;;11.10;99.90;;;;;;10471201;28;20139;-29
2023/01/04 22:58:10;;;;;;;44.65;5.43;;;11.00;99.90;;;;;;10487203;28;20080;-25
2023/01/04 23:03:13;;;;;;;33.28;5.32;;;11.10;99.90;;;;;;10475098;28;20858;-25
2023/01/04 23:08:15;;;;;;;34.63;4.90;;;11.20;99.90;;;;;;10469825;28;20105;-26
2023/01/04 23:13:16;;;;;;;43.08;7.32;;;11.00;99.90;;;;;;10470194;28;20578;-26
2023/01/04 23:18:20;;;;;;;35.45;6.55;;;11.00;99.90;;;;;;10470670;28;20145;-28
2023/01/04 23:23:21;;;;;;;;;;;10.90;99.90;;;;;;10469802;28;20083;-25
2023/01/04 23:28:24;;;;;;;29.48;6.32;;;11.00;99.90;;;;;;10469647;28;19963;-26
2023/01/04 23:33:27;;;;;;;40.88;5.35;;;11.00;99.90;;;;;;10453842;28;20425;-25
2023/01/04 23:38:29;;;;;;;33.63;4.57;;;11.00;99.90;;;;;;10478491;28;20048;-26
2023/01/04 23:43:31;;;;;;;41.85;6.03;;;11.10;99.90;;;;;;10476732;28;20088;-26
2023/01/04 23:48:34;;;;;;;32.10;5.00;;;11.00;99.90;;;;;;10468439;28;20143;-26
2023/01/04 23:53:36;;;;;;;37.28;6.07;;;11.00;99.90;;;;;;10465481;28;20067;-26
2023/01/04 23:58:38;;;;;;;43.72;7.45;;;10.80;99.90;;;;;;10475015;28;20139;-26
